sensor_id;sensor_type;location;lat;lon;timestamp;pressure;altitude;pressure_sealevel;temperature;humidity
56668;BME280;42542;48.360;10.958;2023-05-29T00:01:07;96113.84;;;12.42;72.00
56668;BME280;42542;48.360;10.958;2023-05-29T00:04:11;96116.69;;;12.41;72.31
56668;BME280;42542;48.360;10.958;2023-05-29T00:07:15;96121.94;;;12.34;72.27
56668;BME280;42542;48.360;10.958;2023-05-29T00:10:17;96112.41;;;12.32;72.73
56668;BME280;42542;48.360;10.958;2023-05-29T00:13:20;96124.31;;;12.29;72.82
56668;BME280;42542;48.360;10.958;2023-05-29T00:16:23;96115.97;;;12.24;73.09
56668;BME280;42542;48.360;10.958;2023-05-29T00:19:25;96116.13;;;12.23;73.36
56668;BME280;42542;48.360;10.958;2023-05-29T00:22:27;96112.94;;;12.19;73.43
56668;BME280;42542;48.360;10.958;2023-05-29T00:25:29;96111.66;;;12.15;73.90
56668;BME280;42542;48.360;10.958;2023-05-29T00:28:31;96111.50;;;12.08;73.81
56668;BME280;42542;48.360;10.958;2023-05-29T00:31:33;96113.34;;;12.08;74.08
56668;BME280;42542;48.360;10.958;2023-05-29T00:34:35;96118.03;;;12.06;74.55
56668;BME280;42542;48.360;10.958;2023-05-29T00:37:39;96117.72;;;12.01;74.95
56668;BME280;42542;48.360;10.958;2023-05-29T00:40:41;96113.72;;;11.97;75.05
56668;BME280;42542;48.360;10.958;2023-05-29T00:43:43;96117.75;;;11.93;75.11
56668;BME280;42542;48.360;10.958;2023-05-29T00:46:46;96114.41;;;11.91;75.23
56668;BME280;42542;48.360;10.958;2023-05-29T00:49:49;96113.72;;;11.89;75.50
56668;BME280;42542;48.360;10.958;2023-05-29T00:52:52;96107.22;;;11.83;75.73
56668;BME280;42542;48.360;10.958;2023-05-29T00:55:55;96109.28;;;11.81;76.01
56668;BME280;42542;48.360;10.958;2023-05-29T00:58:57;96107.94;;;11.77;75.84
56668;BME280;42542;48.360;10.958;2023-05-29T01:02:01;96110.09;;;11.73;76.18
56668;BME280;42542;48.360;10.958;2023-05-29T01:05:04;96115.78;;;11.70;76.07
56668;BME280;42542;48.360;10.958;2023-05-29T01:08:07;96117.16;;;11.66;76.34
56668;BME280;42542;48.360;10.958;2023-05-29T01:11:52;96113.13;;;11.62;76.51
56668;BME280;42542;48.360;10.958;2023-05-29T01:15:25;96123.50;;;11.57;77.10
56668;BME280;42542;48.360;10.958;2023-05-29T01:18:56;96114.31;;;11.52;77.22
56668;BME280;42542;48.360;10.958;2023-05-29T01:22:13;96113.81;;;11.48;76.99
56668;BME280;42542;48.360;10.958;2023-05-29T01:25:32;96117.84;;;11.44;77.33
56668;BME280;42542;48.360;10.958;2023-05-29T01:28:47;96123.69;;;11.40;77.47
56668;BME280;42542;48.360;10.958;2023-05-29T01:31:51;96110.84;;;11.35;77.61
56668;BME280;42542;48.360;10.958;2023-05-29T01:34:54;96123.53;;;11.33;77.57
56668;BME280;42542;48.360;10.958;2023-05-29T01:37:56;96114.19;;;11.29;77.70
56668;BME280;42542;48.360;10.958;2023-05-29T01:40:59;96111.00;;;11.25;77.11
56668;BME280;42542;48.360;10.958;2023-05-29T01:44:05;96110.50;;;11.22;77.67
56668;BME280;42542;48.360;10.958;2023-05-29T01:47:10;96113.50;;;11.19;78.39
56668;BME280;42542;48.360;10.958;2023-05-29T01:50:13;96106.84;;;11.15;78.61
56668;BME280;42542;48.360;10.958;2023-05-29T01:53:16;96108.00;;;11.12;78.45
56668;BME280;42542;48.360;10.958;2023-05-29T01:56:18;96112.03;;;11.08;77.83
56668;BME280;42542;48.360;10.958;2023-05-29T01:59:21;96108.00;;;11.04;78.40
56668;BME280;42542;48.360;10.958;2023-05-29T02:02:24;96107.34;;;11.02;77.93
56668;BME280;42542;48.360;10.958;2023-05-29T02:05:27;96106.69;;;11.00;78.89
56668;BME280;42542;48.360;10.958;2023-05-29T02:08:29;96107.16;;;10.95;79.05
56668;BME280;42542;48.360;10.958;2023-05-29T02:11:31;96114.34;;;10.95;78.80
56668;BME280;42542;48.360;10.958;2023-05-29T02:14:33;96114.53;;;10.93;78.86
56668;BME280;42542;48.360;10.958;2023-05-29T02:17:36;96113.03;;;10.91;79.37
56668;BME280;42542;48.360;10.958;2023-05-29T02:20:38;96109.50;;;10.90;79.68
56668;BME280;42542;48.360;10.958;2023-05-29T02:23:40;96116.69;;;10.90;78.60
56668;BME280;42542;48.360;10.958;2023-05-29T02:26:42;96101.84;;;10.87;79.43
56668;BME280;42542;48.360;10.958;2023-05-29T02:29:44;96103.00;;;10.85;79.64
56668;BME280;42542;48.360;10.958;2023-05-29T02:32:46;96101.47;;;10.82;79.71
56668;BME280;42542;48.360;10.958;2023-05-29T02:35:49;96106.19;;;10.80;79.40
56668;BME280;42542;48.360;10.958;2023-05-29T02:38:50;96104.13;;;10.74;78.79
56668;BME280;42542;48.360;10.958;2023-05-29T02:41:52;96122.84;;;10.74;78.88
56668;BME280;42542;48.360;10.958;2023-05-29T02:44:55;96113.50;;;10.70;79.44
56668;BME280;42542;48.360;10.958;2023-05-29T02:47:58;96111.00;;;10.69;79.35
56668;BME280;42542;48.360;10.958;2023-05-29T02:51:00;96107.31;;;10.70;79.10
56668;BME280;42542;48.360;10.958;2023-05-29T02:54:03;96108.47;;;10.67;78.98
56668;BME280;42542;48.360;10.958;2023-05-29T02:57:04;96114.81;;;10.66;79.00
56668;BME280;42542;48.360;10.958;2023-05-29T03:00:07;96108.81;;;10.64;79.56
56668;BME280;42542;48.360;10.958;2023-05-29T03:03:09;96107.16;;;10.63;79.27
56668;BME280;42542;48.360;10.958;2023-05-29T03:06:13;96109.97;;;10.62;79.26
56668;BME280;42542;48.360;10.958;2023-05-29T03:09:17;96115.31;;;10.62;79.51
56668;BME280;42542;48.360;10.958;2023-05-29T03:12:20;96111.97;;;10.60;79.98
56668;BME280;42542;48.360;10.958;2023-05-29T03:15:22;96114.00;;;10.57;78.86
56668;BME280;42542;48.360;10.958;2023-05-29T03:18:26;96115.16;;;10.55;79.46
56668;BME280;42542;48.360;10.958;2023-05-29T03:21:28;96120.34;;;10.56;78.88
56668;BME280;42542;48.360;10.958;2023-05-29T03:24:30;96113.47;;;10.54;79.52
56668;BME280;42542;48.360;10.958;2023-05-29T03:27:32;96116.31;;;10.52;80.15
56668;BME280;42542;48.360;10.958;2023-05-29T03:30:46;96113.81;;;10.51;79.17
56668;BME280;42542;48.360;10.958;2023-05-29T03:33:52;96116.81;;;10.48;80.17
56668;BME280;42542;48.360;10.958;2023-05-29T03:36:56;96115.81;;;10.49;80.20
56668;BME280;42542;48.360;10.958;2023-05-29T03:40:01;96124.97;;;10.46;79.86
56668;BME280;42542;48.360;10.958;2023-05-29T03:43:03;96124.97;;;10.46;79.93
56668;BME280;42542;48.360;10.958;2023-05-29T03:46:05;96131.31;;;10.45;80.28
56668;BME280;42542;48.360;10.958;2023-05-29T03:49:09;96132.34;;;10.44;80.57
56668;BME280;42542;48.360;10.958;2023-05-29T03:52:12;96128.84;;;10.44;80.57
56668;BME280;42542;48.360;10.958;2023-05-29T03:55:14;96135.00;;;10.44;80.39
56668;BME280;42542;48.360;10.958;2023-05-29T03:58:18;96135.00;;;10.44;80.72
56668;BME280;42542;48.360;10.958;2023-05-29T04:01:21;96143.03;;;10.44;81.01
56668;BME280;42542;48.360;10.958;2023-05-29T04:04:23;96133.00;;;10.46;81.11
56668;BME280;42542;48.360;10.958;2023-05-29T04:07:26;96135.50;;;10.48;81.04
56668;BME280;42542;48.360;10.958;2023-05-29T04:10:28;96135.34;;;10.49;81.76
56668;BME280;42542;48.360;10.958;2023-05-29T04:13:30;96141.38;;;10.51;80.96
56668;BME280;42542;48.360;10.958;2023-05-29T04:16:32;96135.00;;;10.52;81.14
56668;BME280;42542;48.360;10.958;2023-05-29T04:19:35;96140.72;;;10.57;82.22
56668;BME280;42542;48.360;10.958;2023-05-29T04:22:37;96142.22;;;10.60;82.04
56668;BME280;42542;48.360;10.958;2023-05-29T04:25:40;96149.91;;;10.63;82.04
56668;BME280;42542;48.360;10.958;2023-05-29T04:28:42;96145.06;;;10.67;81.66
56668;BME280;42542;48.360;10.958;2023-05-29T04:31:46;96150.44;;;10.75;80.89
56668;BME280;42542;48.360;10.958;2023-05-29T04:34:49;96150.78;;;10.80;81.13
56668;BME280;42542;48.360;10.958;2023-05-29T04:37:53;96151.28;;;10.91;80.97
56668;BME280;42542;48.360;10.958;2023-05-29T04:40:56;96143.59;;;10.96;81.07
56668;BME280;42542;48.360;10.958;2023-05-29T04:44:02;96159.34;;;11.08;81.48
56668;BME280;42542;48.360;10.958;2023-05-29T04:47:14;96162.88;;;11.16;81.64
56668;BME280;42542;48.360;10.958;2023-05-29T04:50:17;96153.81;;;11.17;81.92
56668;BME280;42542;48.360;10.958;2023-05-29T04:53:19;96156.31;;;11.27;81.66
56668;BME280;42542;48.360;10.958;2023-05-29T04:56:22;96163.34;;;11.36;82.33
56668;BME280;42542;48.360;10.958;2023-05-29T04:59:24;96170.38;;;11.45;81.53
56668;BME280;42542;48.360;10.958;2023-05-29T05:02:28;96171.19;;;11.54;81.56
56668;BME280;42542;48.360;10.958;2023-05-29T05:05:30;96165.66;;;11.63;81.85
56668;BME280;42542;48.360;10.958;2023-05-29T05:08:34;96165.50;;;11.73;81.88
56668;BME280;42542;48.360;10.958;2023-05-29T05:11:37;96169.66;;;11.84;80.45
56668;BME280;42542;48.360;10.958;2023-05-29T05:14:40;96169.31;;;11.95;80.20
56668;BME280;42542;48.360;10.958;2023-05-29T05:17:43;96174.97;;;12.08;80.38
56668;BME280;42542;48.360;10.958;2023-05-29T05:20:47;96176.09;;;12.22;79.19
56668;BME280;42542;48.360;10.958;2023-05-29T05:23:50;96182.56;;;12.35;79.18
56668;BME280;42542;48.360;10.958;2023-05-29T05:27:03;96180.00;;;12.50;78.97
56668;BME280;42542;48.360;10.958;2023-05-29T05:30:09;96181.09;;;12.64;78.34
56668;BME280;42542;48.360;10.958;2023-05-29T05:33:11;96190.41;;;12.76;78.32
56668;BME280;42542;48.360;10.958;2023-05-29T05:36:14;96178.31;;;12.88;77.40
56668;BME280;42542;48.360;10.958;2023-05-29T05:39:16;96188.28;;;13.02;77.07
56668;BME280;42542;48.360;10.958;2023-05-29T05:42:21;96187.53;;;13.16;76.83
56668;BME280;42542;48.360;10.958;2023-05-29T05:45:28;96189.28;;;13.32;76.21
56668;BME280;42542;48.360;10.958;2023-05-29T05:48:30;96181.44;;;13.45;75.33
56668;BME280;42542;48.360;10.958;2023-05-29T05:51:32;96169.41;;;13.56;75.04
56668;BME280;42542;48.360;10.958;2023-05-29T05:54:35;96179.19;;;13.72;74.54
56668;BME280;42542;48.360;10.958;2023-05-29T05:57:37;96176.88;;;13.83;73.61
56668;BME280;42542;48.360;10.958;2023-05-29T06:00:42;96182.47;;;13.96;73.19
56668;BME280;42542;48.360;10.958;2023-05-29T06:03:44;96193.25;;;14.11;72.69
56668;BME280;42542;48.360;10.958;2023-05-29T06:06:47;96201.84;;;14.21;72.12
56668;BME280;42542;48.360;10.958;2023-05-29T06:09:49;96198.06;;;14.30;71.39
56668;BME280;42542;48.360;10.958;2023-05-29T06:12:52;96207.53;;;14.41;71.35
56668;BME280;42542;48.360;10.958;2023-05-29T06:15:58;96202.06;;;14.49;70.80
56668;BME280;42542;48.360;10.958;2023-05-29T06:19:01;96213.75;;;14.56;70.01
56668;BME280;42542;48.360;10.958;2023-05-29T06:22:07;96210.34;;;14.62;69.84
56668;BME280;42542;48.360;10.958;2023-05-29T06:25:12;96211.25;;;14.69;69.74
56668;BME280;42542;48.360;10.958;2023-05-29T06:28:13;96212.63;;;14.80;70.04
56668;BME280;42542;48.360;10.958;2023-05-29T06:31:15;96209.56;;;14.83;69.59
56668;BME280;42542;48.360;10.958;2023-05-29T06:34:18;96213.44;;;14.95;68.85
56668;BME280;42542;48.360;10.958;2023-05-29T06:37:21;96220.38;;;15.04;68.93
56668;BME280;42542;48.360;10.958;2023-05-29T06:40:24;96218.38;;;15.13;68.47
56668;BME280;42542;48.360;10.958;2023-05-29T06:43:27;96223.66;;;15.21;68.30
56668;BME280;42542;48.360;10.958;2023-05-29T06:46:32;96232.09;;;15.33;68.23
56668;BME280;42542;48.360;10.958;2023-05-29T06:49:35;96229.66;;;15.38;67.28
56668;BME280;42542;48.360;10.958;2023-05-29T06:52:38;96230.34;;;15.46;66.96
56668;BME280;42542;48.360;10.958;2023-05-29T06:55:58;96238.16;;;15.56;66.50
56668;BME280;42542;48.360;10.958;2023-05-29T06:59:01;96229.09;;;15.63;66.60
56668;BME280;42542;48.360;10.958;2023-05-29T07:02:05;96229.59;;;15.74;66.16
56668;BME280;42542;48.360;10.958;2023-05-29T07:05:07;96241.94;;;15.83;65.65
56668;BME280;42542;48.360;10.958;2023-05-29T07:08:11;96232.03;;;15.90;65.82
56668;BME280;42542;48.360;10.958;2023-05-29T07:11:13;96237.09;;;15.99;64.98
56668;BME280;42542;48.360;10.958;2023-05-29T07:14:15;96239.44;;;16.09;65.17
56668;BME280;42542;48.360;10.958;2023-05-29T07:17:19;96242.47;;;16.21;64.36
56668;BME280;42542;48.360;10.958;2023-05-29T07:20:26;96237.94;;;16.28;64.01
56668;BME280;42542;48.360;10.958;2023-05-29T07:23:29;96235.06;;;16.36;64.68
56668;BME280;42542;48.360;10.958;2023-05-29T07:26:31;96237.44;;;16.46;63.83
56668;BME280;42542;48.360;10.958;2023-05-29T07:29:33;96236.25;;;16.55;64.08
56668;BME280;42542;48.360;10.958;2023-05-29T07:32:35;96243.81;;;16.66;63.22
56668;BME280;42542;48.360;10.958;2023-05-29T07:35:38;96246.16;;;16.75;63.40
56668;BME280;42542;48.360;10.958;2023-05-29T07:38:40;96247.84;;;16.83;62.92
56668;BME280;42542;48.360;10.958;2023-05-29T07:41:43;96250.19;;;16.93;62.73
56668;BME280;42542;48.360;10.958;2023-05-29T07:44:45;96246.91;;;17.04;62.49
56668;BME280;42542;48.360;10.958;2023-05-29T07:47:48;96240.91;;;17.15;62.79
56668;BME280;42542;48.360;10.958;2023-05-29T07:50:51;96250.53;;;17.24;61.60
56668;BME280;42542;48.360;10.958;2023-05-29T07:53:55;96242.88;;;17.34;61.98
56668;BME280;42542;48.360;10.958;2023-05-29T07:56:56;96255.16;;;17.43;61.79
56668;BME280;42542;48.360;10.958;2023-05-29T07:59:59;96254.13;;;17.51;61.22
56668;BME280;42542;48.360;10.958;2023-05-29T08:03:03;96252.06;;;17.60;61.02
56668;BME280;42542;48.360;10.958;2023-05-29T08:06:25;96252.53;;;17.63;59.95
56668;BME280;42542;48.360;10.958;2023-05-29T08:09:32;96249.03;;;17.69;60.20
56668;BME280;42542;48.360;10.958;2023-05-29T08:12:34;96249.88;;;17.76;60.15
56668;BME280;42542;48.360;10.958;2023-05-29T08:15:37;96249.22;;;17.81;59.22
56668;BME280;42542;48.360;10.958;2023-05-29T08:18:40;96246.53;;;17.87;58.63
56668;BME280;42542;48.360;10.958;2023-05-29T08:21:41;96238.84;;;17.91;58.49
56668;BME280;42542;48.360;10.958;2023-05-29T08:24:44;96241.97;;;18.01;58.45
56668;BME280;42542;48.360;10.958;2023-05-29T08:27:46;96238.22;;;18.09;58.76
56668;BME280;42542;48.360;10.958;2023-05-29T08:30:48;96239.06;;;18.16;57.44
56668;BME280;42542;48.360;10.958;2023-05-29T08:33:49;96235.94;;;18.25;56.77
56668;BME280;42542;48.360;10.958;2023-05-29T08:36:52;96240.72;;;18.37;56.92
56668;BME280;42542;48.360;10.958;2023-05-29T08:39:56;96240.91;;;18.48;56.39
56668;BME280;42542;48.360;10.958;2023-05-29T08:43:12;96232.41;;;18.58;55.16
56668;BME280;42542;48.360;10.958;2023-05-29T08:46:17;96235.94;;;18.65;55.08
56668;BME280;42542;48.360;10.958;2023-05-29T08:49:19;96241.09;;;18.73;54.50
56668;BME280;42542;48.360;10.958;2023-05-29T08:52:24;96237.31;;;18.81;54.02
56668;BME280;42542;48.360;10.958;2023-05-29T08:55:29;96233.16;;;18.85;54.55
56668;BME280;42542;48.360;10.958;2023-05-29T08:58:31;96236.88;;;18.97;52.86
56668;BME280;42542;48.360;10.958;2023-05-29T09:01:36;96238.09;;;19.07;53.41
56668;BME280;42542;48.360;10.958;2023-05-29T09:04:41;96238.91;;;19.15;51.10
56668;BME280;42542;48.360;10.958;2023-05-29T09:07:44;96248.41;;;19.24;51.90
56668;BME280;42542;48.360;10.958;2023-05-29T09:10:47;96237.59;;;19.30;50.94
56668;BME280;42542;48.360;10.958;2023-05-29T09:13:51;96241.09;;;19.37;50.43
56668;BME280;42542;48.360;10.958;2023-05-29T09:16:53;96238.75;;;19.41;49.54
56668;BME280;42542;48.360;10.958;2023-05-29T09:19:56;96244.81;;;19.49;50.36
56668;BME280;42542;48.360;10.958;2023-05-29T09:23:00;96241.38;;;19.61;50.47
56668;BME280;42542;48.360;10.958;2023-05-29T09:26:03;96240.50;;;19.67;49.90
56668;BME280;42542;48.360;10.958;2023-05-29T09:29:45;96236.72;;;19.74;49.44
56668;BME280;42542;48.360;10.958;2023-05-29T09:32:53;96232.06;;;19.81;49.25
56668;BME280;42542;48.360;10.958;2023-05-29T09:35:56;96231.81;;;19.89;49.80
56668;BME280;42542;48.360;10.958;2023-05-29T09:39:02;96230.72;;;19.97;50.07
56668;BME280;42542;48.360;10.958;2023-05-29T09:42:08;96237.13;;;20.09;49.35
56668;BME280;42542;48.360;10.958;2023-05-29T09:45:11;96234.94;;;20.18;49.05
56668;BME280;42542;48.360;10.958;2023-05-29T09:48:15;96240.09;;;20.26;47.69
56668;BME280;42542;48.360;10.958;2023-05-29T09:51:22;96237.78;;;20.30;46.98
56668;BME280;42542;48.360;10.958;2023-05-29T09:54:27;96232.94;;;20.32;47.30
56668;BME280;42542;48.360;10.958;2023-05-29T09:57:31;96235.03;;;20.36;45.89
56668;BME280;42542;48.360;10.958;2023-05-29T10:00:33;96238.59;;;20.37;45.81
56668;BME280;42542;48.360;10.958;2023-05-29T10:03:35;96234.19;;;20.36;45.57
56668;BME280;42542;48.360;10.958;2023-05-29T10:06:48;96226.22;;;20.41;45.55
56668;BME280;42542;48.360;10.958;2023-05-29T10:10:03;96216.41;;;20.40;45.16
56668;BME280;42542;48.360;10.958;2023-05-29T10:13:06;96224.03;;;20.49;45.54
56668;BME280;42542;48.360;10.958;2023-05-29T10:16:11;96224.19;;;20.54;45.49
56668;BME280;42542;48.360;10.958;2023-05-29T10:19:21;96233.28;;;20.67;45.42
56668;BME280;42542;48.360;10.958;2023-05-29T10:22:26;96225.72;;;20.69;44.58
56668;BME280;42542;48.360;10.958;2023-05-29T10:25:31;96230.28;;;20.75;44.71
56668;BME280;42542;48.360;10.958;2023-05-29T10:28:36;96236.06;;;20.78;44.23
56668;BME280;42542;48.360;10.958;2023-05-29T10:38:16;96222.34;;;20.91;44.48
56668;BME280;42542;48.360;10.958;2023-05-29T10:47:33;96223.31;;;21.15;42.41
56668;BME280;42542;48.360;10.958;2023-05-29T10:50:40;96223.50;;;21.20;42.48
56668;BME280;42542;48.360;10.958;2023-05-29T10:53:42;96224.72;;;21.24;41.83
56668;BME280;42542;48.360;10.958;2023-05-29T10:56:44;96221.84;;;21.19;41.50
56668;BME280;42542;48.360;10.958;2023-05-29T11:00:03;96220.78;;;21.20;41.73
56668;BME280;42542;48.360;10.958;2023-05-29T11:03:08;96219.72;;;21.21;42.11
56668;BME280;42542;48.360;10.958;2023-05-29T11:06:19;96215.25;;;21.27;42.16
56668;BME280;42542;48.360;10.958;2023-05-29T11:12:32;96221.13;;;21.42;42.15
56668;BME280;42542;48.360;10.958;2023-05-29T11:15:40;96219.38;;;21.48;41.97
56668;BME280;42542;48.360;10.958;2023-05-29T11:18:47;96212.19;;;21.53;41.64
56668;BME280;42542;48.360;10.958;2023-05-29T11:22:09;96222.16;;;21.59;41.13
56668;BME280;42542;48.360;10.958;2023-05-29T11:25:16;96218.72;;;21.64;41.03
56668;BME280;42542;48.360;10.958;2023-05-29T11:28:19;96221.56;;;21.69;41.49
56668;BME280;42542;48.360;10.958;2023-05-29T11:31:23;96219.47;;;21.71;40.49
56668;BME280;42542;48.360;10.958;2023-05-29T11:34:27;96218.41;;;21.72;40.16
56668;BME280;42542;48.360;10.958;2023-05-29T11:37:30;96212.03;;;21.78;40.81
56668;BME280;42542;48.360;10.958;2023-05-29T11:40:37;96214.31;;;21.93;41.05
56668;BME280;42542;48.360;10.958;2023-05-29T11:43:40;96212.97;;;22.02;40.61
56668;BME280;42542;48.360;10.958;2023-05-29T11:46:41;96221.47;;;22.05;40.14
56668;BME280;42542;48.360;10.958;2023-05-29T11:49:43;96208.84;;;22.11;40.04
56668;BME280;42542;48.360;10.958;2023-05-29T11:52:46;96209.69;;;22.23;39.65
56668;BME280;42542;48.360;10.958;2023-05-29T11:55:48;96204.00;;;22.25;39.47
56668;BME280;42542;48.360;10.958;2023-05-29T11:58:50;96211.47;;;22.29;39.06
56668;BME280;42542;48.360;10.958;2023-05-29T12:01:57;96199.03;;;22.33;38.88
56668;BME280;42542;48.360;10.958;2023-05-29T12:05:05;96214.69;;;22.38;38.44
56668;BME280;42542;48.360;10.958;2023-05-29T12:08:12;96204.38;;;22.40;38.89
56668;BME280;42542;48.360;10.958;2023-05-29T12:11:13;96198.47;;;22.54;39.23
56668;BME280;42542;48.360;10.958;2023-05-29T12:14:17;96195.34;;;22.63;38.48
56668;BME280;42542;48.360;10.958;2023-05-29T12:17:20;96199.63;;;22.70;38.54
56668;BME280;42542;48.360;10.958;2023-05-29T12:20:24;96198.13;;;22.74;38.02
56668;BME280;42542;48.360;10.958;2023-05-29T12:23:28;96197.41;;;22.90;38.21
56668;BME280;42542;48.360;10.958;2023-05-29T12:26:31;96197.13;;;23.04;38.14
56668;BME280;42542;48.360;10.958;2023-05-29T12:29:34;96196.94;;;23.22;38.41
56668;BME280;42542;48.360;10.958;2023-05-29T12:32:37;96198.31;;;23.36;38.19
56668;BME280;42542;48.360;10.958;2023-05-29T12:35:39;96199.72;;;23.50;38.18
56668;BME280;42542;48.360;10.958;2023-05-29T12:38:51;96192.75;;;23.71;36.63
56668;BME280;42542;48.360;10.958;2023-05-29T12:41:54;96195.91;;;23.80;36.17
56668;BME280;42542;48.360;10.958;2023-05-29T12:44:56;96197.25;;;23.94;36.49
56668;BME280;42542;48.360;10.958;2023-05-29T12:48:03;96198.31;;;24.21;36.84
56668;BME280;42542;48.360;10.958;2023-05-29T12:51:07;96196.75;;;24.42;35.88
56668;BME280;42542;48.360;10.958;2023-05-29T12:54:14;96197.38;;;24.66;35.34
56668;BME280;42542;48.360;10.958;2023-05-29T12:57:16;96192.13;;;24.81;35.20
56668;BME280;42542;48.360;10.958;2023-05-29T13:00:19;96199.63;;;25.07;35.27
56668;BME280;42542;48.360;10.958;2023-05-29T13:03:22;96199.13;;;25.32;34.51
56668;BME280;42542;48.360;10.958;2023-05-29T13:06:27;96203.72;;;25.48;33.82
56668;BME280;42542;48.360;10.958;2023-05-29T13:09:30;96188.88;;;25.66;33.59
56668;BME280;42542;48.360;10.958;2023-05-29T13:12:32;96190.59;;;25.99;33.59
56668;BME280;42542;48.360;10.958;2023-05-29T13:15:34;96189.16;;;26.23;32.20
56668;BME280;42542;48.360;10.958;2023-05-29T13:18:36;96187.66;;;26.37;33.24
56668;BME280;42542;48.360;10.958;2023-05-29T13:21:38;96185.09;;;26.58;32.93
56668;BME280;42542;48.360;10.958;2023-05-29T13:24:41;96193.13;;;26.69;32.44
56668;BME280;42542;48.360;10.958;2023-05-29T13:27:46;96191.53;;;26.78;31.55
56668;BME280;42542;48.360;10.958;2023-05-29T13:30:48;96191.00;;;26.81;31.47
56668;BME280;42542;48.360;10.958;2023-05-29T13:33:50;96177.72;;;27.00;31.59
56668;BME280;42542;48.360;10.958;2023-05-29T13:36:55;96166.06;;;27.30;30.98
56668;BME280;42542;48.360;10.958;2023-05-29T13:39:58;96166.41;;;27.54;30.65
56668;BME280;42542;48.360;10.958;2023-05-29T13:42:59;96176.34;;;27.75;30.82
56668;BME280;42542;48.360;10.958;2023-05-29T13:46:01;96174.78;;;28.00;30.33
56668;BME280;42542;48.360;10.958;2023-05-29T13:49:04;96168.22;;;28.21;29.52
56668;BME280;42542;48.360;10.958;2023-05-29T13:52:06;96171.53;;;28.38;29.00
56668;BME280;42542;48.360;10.958;2023-05-29T13:55:08;96172.63;;;28.42;28.76
56668;BME280;42542;48.360;10.958;2023-05-29T13:58:11;96167.94;;;28.48;28.51
56668;BME280;42542;48.360;10.958;2023-05-29T14:01:13;96170.13;;;28.51;28.28
56668;BME280;42542;48.360;10.958;2023-05-29T14:04:16;96164.91;;;28.59;27.93
56668;BME280;42542;48.360;10.958;2023-05-29T14:07:18;96166.00;;;28.63;28.14
56668;BME280;42542;48.360;10.958;2023-05-29T14:10:21;96161.03;;;28.76;28.02
56668;BME280;42542;48.360;10.958;2023-05-29T14:13:22;96151.66;;;28.92;27.57
56668;BME280;42542;48.360;10.958;2023-05-29T14:16:24;96162.91;;;29.05;27.62
56668;BME280;42542;48.360;10.958;2023-05-29T14:19:27;96156.78;;;29.19;27.15
56668;BME280;42542;48.360;10.958;2023-05-29T14:22:29;96153.72;;;29.40;27.53
56668;BME280;42542;48.360;10.958;2023-05-29T14:25:31;96154.47;;;29.56;26.71
56668;BME280;42542;48.360;10.958;2023-05-29T14:28:33;96154.09;;;29.73;26.33
56668;BME280;42542;48.360;10.958;2023-05-29T14:31:35;96157.09;;;29.81;25.71
56668;BME280;42542;48.360;10.958;2023-05-29T14:34:37;96161.78;;;29.81;26.01
56668;BME280;42542;48.360;10.958;2023-05-29T14:37:39;96150.44;;;29.87;25.60
56668;BME280;42542;48.360;10.958;2023-05-29T14:40:41;96153.69;;;30.00;25.05
56668;BME280;42542;48.360;10.958;2023-05-29T14:43:44;96159.38;;;30.13;26.10
56668;BME280;42542;48.360;10.958;2023-05-29T14:46:46;96159.25;;;30.28;25.47
56668;BME280;42542;48.360;10.958;2023-05-29T14:49:49;96157.47;;;30.43;24.69
56668;BME280;42542;48.360;10.958;2023-05-29T14:52:51;96158.06;;;30.40;24.74
56668;BME280;42542;48.360;10.958;2023-05-29T14:55:53;96151.19;;;30.37;24.42
56668;BME280;42542;48.360;10.958;2023-05-29T14:58:56;96142.63;;;30.39;24.18
56668;BME280;42542;48.360;10.958;2023-05-29T15:01:58;96140.91;;;30.43;23.62
56668;BME280;42542;48.360;10.958;2023-05-29T15:05:01;96139.38;;;30.32;23.21
56668;BME280;42542;48.360;10.958;2023-05-29T15:08:03;96149.25;;;30.38;23.96
56668;BME280;42542;48.360;10.958;2023-05-29T15:11:05;96147.22;;;30.14;23.21
56668;BME280;42542;48.360;10.958;2023-05-29T15:14:07;96138.22;;;30.04;23.47
56668;BME280;42542;48.360;10.958;2023-05-29T15:17:10;96135.38;;;30.14;23.51
56668;BME280;42542;48.360;10.958;2023-05-29T15:20:13;96132.00;;;30.22;24.14
56668;BME280;42542;48.360;10.958;2023-05-29T15:23:15;96125.53;;;30.37;23.42
56668;BME280;42542;48.360;10.958;2023-05-29T15:26:17;96134.25;;;30.49;23.13
56668;BME280;42542;48.360;10.958;2023-05-29T15:29:19;96125.63;;;30.60;23.56
56668;BME280;42542;48.360;10.958;2023-05-29T15:32:22;96125.00;;;30.69;22.90
56668;BME280;42542;48.360;10.958;2023-05-29T15:35:24;96125.16;;;30.77;22.82
56668;BME280;42542;48.360;10.958;2023-05-29T15:38:26;96126.69;;;30.64;22.75
56668;BME280;42542;48.360;10.958;2023-05-29T15:41:28;96124.75;;;30.31;22.74
56668;BME280;42542;48.360;10.958;2023-05-29T15:44:30;96121.38;;;30.05;22.89
56668;BME280;42542;48.360;10.958;2023-05-29T15:47:32;96124.97;;;30.06;23.36
56668;BME280;42542;48.360;10.958;2023-05-29T15:50:35;96127.84;;;29.85;23.13
56668;BME280;42542;48.360;10.958;2023-05-29T15:53:37;96122.47;;;29.65;23.18
56668;BME280;42542;48.360;10.958;2023-05-29T15:56:39;96128.56;;;29.57;23.50
56668;BME280;42542;48.360;10.958;2023-05-29T15:59:41;96120.94;;;29.44;23.50
56668;BME280;42542;48.360;10.958;2023-05-29T16:02:43;96121.00;;;29.24;24.12
56668;BME280;42542;48.360;10.958;2023-05-29T16:05:46;96118.88;;;29.00;23.92
56668;BME280;42542;48.360;10.958;2023-05-29T16:08:51;96121.69;;;28.85;23.95
56668;BME280;42542;48.360;10.958;2023-05-29T16:11:54;96122.25;;;28.67;23.64
56668;BME280;42542;48.360;10.958;2023-05-29T16:14:57;96118.72;;;28.41;24.07
56668;BME280;42542;48.360;10.958;2023-05-29T16:17:59;96123.69;;;28.19;24.44